Time;durP1;ratioP1;P1;durP2;ratioP2;P2;SDS_P1;SDS_P2;PMS_P1;PMS_P2;Temp;Humidity;BMP_temperature;BMP_pressure;BME280_temperature;BME280_humidity;BME280_pressure;Samples;Min_cycle;Max_cycle;Signal;HPM_P1;HPM_P2
2022/09/19 00:01:12;;;;;;;0.40;0.30;;;;;;;9.82;100.00;100295.88;5038421;28;20926;-56
2022/09/19 00:03:41;;;;;;;1.17;0.80;;;;;;;9.85;100.00;100301.09;5043160;28;20967;-56
2022/09/19 00:06:10;;;;;;;0.87;0.47;;;;;;;9.98;100.00;100291.91;5045437;28;20454;-56
2022/09/19 00:08:39;;;;;;;0.30;0.20;;;;;;;9.97;100.00;100299.91;5040862;28;20462;-56
2022/09/19 00:11:07;;;;;;;0.30;0.20;;;;;;;9.79;100.00;100288.88;5038000;28;20474;-56
2022/09/19 00:13:36;;;;;;;12.43;0.40;;;;;;;10.03;100.00;100284.72;5041610;28;20482;-56
2022/09/19 00:16:03;;;;;;;0.40;0.30;;;;;;;10.14;100.00;100275.56;5037928;28;20458;-56
2022/09/19 00:18:31;;;;;;;0.30;0.20;;;;;;;10.09;100.00;100291.63;5036013;28;20873;-56
2022/09/19 00:21:00;;;;;;;0.40;0.30;;;;;;;9.99;100.00;100292.78;5044524;28;20586;-56
2022/09/19 00:26:17;;;;;;;0.30;0.20;;;;;;;10.01;100.00;100290.97;5036562;28;20456;-56
2022/09/19 00:28:45;;;;;;;2.87;0.77;;;;;;;10.20;100.00;100289.56;5045055;28;21015;-56
2022/09/19 00:31:17;;;;;;;0.50;0.30;;;;;;;10.20;100.00;100283.38;5040285;28;20528;-56
2022/09/19 00:33:46;;;;;;;0.30;0.20;;;;;;;10.65;100.00;100286.56;5037554;28;20455;-56
2022/09/19 00:36:14;;;;;;;0.97;0.70;;;;;;;10.51;100.00;100286.97;5042112;28;20474;-56
2022/09/19 00:38:40;;;;;;;0.40;0.30;;;;;;;10.71;100.00;100283.75;5044442;28;20878;-56
2022/09/19 00:41:08;;;;;;;0.30;0.20;;;;;;;10.52;100.00;100283.38;5041610;28;20499;-56
2022/09/19 00:43:49;;;;;;;0.30;0.20;;;;;;;10.51;100.00;100291.41;5037693;28;20505;-57
2022/09/19 00:46:17;;;;;;;0.40;0.30;;;;;;;10.54;100.00;100292.19;5037309;28;20526;-56
2022/09/19 00:48:47;;;;;;;0.30;0.20;;;;;;;10.79;100.00;100297.66;5024654;28;20516;-56
2022/09/19 00:51:22;;;;;;;0.70;0.70;;;;;;;10.69;100.00;100301.53;5037222;28;20471;-56
2022/09/19 00:53:49;;;;;;;0.40;0.30;;;;;;;10.73;100.00;100299.66;5043136;28;20451;-56
2022/09/19 00:56:18;;;;;;;2.40;0.83;;;;;;;10.56;100.00;100305.44;5043386;28;20459;-56
2022/09/19 00:58:46;;;;;;;1.23;0.40;;;;;;;10.67;100.00;100295.34;5039607;28;20458;-56
2022/09/19 01:01:14;;;;;;;0.30;0.20;;;;;;;10.64;100.00;100306.09;5019622;28;21033;-57
2022/09/19 01:03:45;;;;;;;0.30;0.20;;;;;;;10.82;100.00;100302.88;5040946;28;20462;-56
2022/09/19 01:06:39;;;;;;;0.57;0.30;;;;;;;10.65;100.00;100313.16;5034933;28;20459;-56
2022/09/19 01:09:41;;;;;;;2.60;0.63;;;;;;;10.65;100.00;100313.16;5037017;28;20448;-56
2022/09/19 01:12:46;;;;;;;0.30;0.20;;;;;;;10.78;100.00;100311.88;5038048;28;20447;-55
2022/09/19 01:15:24;;;;;;;0.60;0.57;;;;;;;10.81;100.00;100303.81;4981283;28;20526;-56
2022/09/19 01:17:54;;;;;;;0.50;0.40;;;;;;;10.77;100.00;100307.47;5037088;28;20451;-56
2022/09/19 01:24:07;;;;;;;0.40;0.40;;;;;;;10.79;100.00;100299.44;4966127;28;20462;-56
2022/09/19 01:26:58;;;;;;;0.30;0.20;;;;;;;10.82;100.00;100302.00;5038636;28;21021;-57
2022/09/19 01:29:39;;;;;;;0.40;0.30;;;;;;;10.87;100.00;100308.09;5026112;28;20944;-56
2022/09/19 01:32:12;;;;;;;2.53;0.50;;;;;;;10.94;100.00;100314.94;5039671;28;20525;-56
2022/09/19 01:34:46;;;;;;;0.90;0.90;;;;;;;11.25;100.00;100314.91;5037252;28;20452;-57
2022/09/19 01:37:27;;;;;;;0.60;0.50;;;;;;;11.15;100.00;100314.31;5043412;28;20529;-56
2022/09/19 01:39:56;;;;;;;1.17;0.70;;;;;;;11.08;100.00;100318.06;5043606;28;20454;-57
2022/09/19 01:42:24;;;;;;;0.70;0.60;;;;;;;10.95;100.00;100317.56;5037612;28;20529;-56
2022/09/19 01:44:52;;;;;;;0.80;0.50;;;;;;;11.14;100.00;100325.88;5036093;28;20905;-57
2022/09/19 01:47:36;;;;;;;2.00;0.40;;;;;;;11.09;100.00;100327.78;5041620;28;20455;-57
2022/09/19 01:50:06;;;;;;;0.50;0.30;;;;;;;11.22;100.00;100321.19;5043118;28;20475;-57
2022/09/19 01:52:42;;;;;;;3.30;0.57;;;;;;;11.39;100.00;100322.47;5032904;28;20514;-56
2022/09/19 01:55:31;;;;;;;0.40;0.30;;;;;;;11.18;100.00;100322.19;5045843;28;20462;-56
2022/09/19 01:58:07;;;;;;;1.37;0.40;;;;;;;11.28;100.00;100326.34;5036695;28;20920;-56
2022/09/19 02:00:38;;;;;;;0.47;0.37;;;;;;;11.02;100.00;100330.69;5038751;28;20832;-57
2022/09/19 02:03:36;;;;;;;0.60;0.50;;;;;;;11.41;100.00;100317.97;5042860;28;20495;-56
2022/09/19 02:06:10;;;;;;;2.10;1.07;;;;;;;11.18;100.00;100322.19;5033131;28;20963;-57
2022/09/19 02:09:00;;;;;;;0.50;0.43;;;;;;;11.17;100.00;100332.91;5038038;28;20451;-56
2022/09/19 02:11:27;;;;;;;13.93;0.90;;;;;;;11.15;100.00;100332.94;5036693;28;20528;-57
2022/09/19 02:14:01;;;;;;;0.40;0.20;;;;;;;11.22;100.00;100328.28;5035896;28;20539;-56
2022/09/19 02:16:39;;;;;;;0.50;0.50;;;;;;;11.30;100.00;100334.25;5030060;28;20464;-56
2022/09/19 02:19:12;;;;;;;1.43;0.40;;;;;;;11.11;100.00;100341.06;5042826;28;20568;-56
2022/09/19 02:21:47;;;;;;;3.90;0.53;;;;;;;11.18;100.00;100343.50;5035825;28;20549;-56
2022/09/19 02:24:19;;;;;;;0.50;0.40;;;;;;;11.38;100.00;100344.69;5042636;28;20447;-57
2022/09/19 02:26:51;;;;;;;0.30;0.20;;;;;;;11.21;100.00;100339.84;5042124;28;20577;-57
2022/09/19 02:29:23;;;;;;;1.33;0.80;;;;;;;11.32;100.00;100344.84;5023670;28;20450;-56
2022/09/19 02:31:50;;;;;;;1.23;1.07;;;;;;;11.34;100.00;100340.34;5035497;28;21045;-57
2022/09/19 02:34:17;;;;;;;0.40;0.30;;;;;;;11.30;100.00;100339.59;5040505;28;21031;-56
2022/09/19 02:37:03;;;;;;;1.17;0.67;;;;;;;11.43;100.00;100343.63;5042312;28;21027;-57
2022/09/19 02:39:37;;;;;;;1.00;0.87;;;;;;;11.67;100.00;100341.97;5040417;28;20496;-56
2022/09/19 02:42:30;;;;;;;0.33;0.20;;;;;;;11.37;100.00;100343.78;5035109;28;20493;-56
2022/09/19 02:45:11;;;;;;;3.70;0.87;;;;;;;11.34;100.00;100330.56;5032453;28;20459;-56
2022/09/19 02:47:57;;;;;;;4.00;0.97;;;;;;;11.33;100.00;100336.81;5037583;28;20459;-56
2022/09/19 02:50:39;;;;;;;0.33;0.20;;;;;;;11.40;100.00;100345.50;5024337;28;21003;-57
2022/09/19 02:53:12;;;;;;;0.40;0.30;;;;;;;11.33;100.00;100346.59;5035254;28;20494;-56
2022/09/19 02:55:46;;;;;;;1.73;0.40;;;;;;;11.44;100.00;100347.16;5042752;28;20528;-56
2022/09/19 02:58:15;;;;;;;0.40;0.30;;;;;;;11.31;100.00;100353.75;5035509;28;20455;-56
2022/09/19 03:00:51;;;;;;;0.40;0.40;;;;;;;11.59;100.00;100346.66;5041565;28;20479;-56
2022/09/19 03:06:17;;;;;;;0.40;0.30;;;;;;;11.58;100.00;100351.09;5030167;28;20450;-56
2022/09/19 03:08:47;;;;;;;0.57;0.57;;;;;;;11.65;100.00;100365.13;5037831;28;20452;-56
2022/09/19 03:11:18;;;;;;;0.80;0.50;;;;;;;11.52;100.00;100351.31;5041717;28;20529;-56
2022/09/19 03:13:45;;;;;;;0.50;0.40;;;;;;;11.64;100.00;100358.03;5040774;28;20504;-56
2022/09/19 03:16:17;;;;;;;6.40;1.03;;;;;;;11.86;100.00;100366.22;5034566;28;20871;-56
2022/09/19 03:18:46;;;;;;;0.70;0.67;;;;;;;11.70;100.00;100363.16;5041765;28;20936;-56
2022/09/19 03:21:13;;;;;;;2.83;0.70;;;;;;;11.60;100.00;100376.81;5045506;28;20992;-56
2022/09/19 03:23:45;;;;;;;0.40;0.40;;;;;;;11.42;100.00;100370.28;5021176;28;20459;-56
2022/09/19 03:26:16;;;;;;;1.13;0.83;;;;;;;11.68;100.00;100364.13;5044515;28;20522;-56
2022/09/19 03:28:43;;;;;;;1.30;0.80;;;;;;;11.57;100.00;100373.34;5045995;28;20572;-56
2022/09/19 03:31:09;;;;;;;0.40;0.30;;;;;;;11.40;100.00;100369.47;5034705;28;20557;-56
2022/09/19 03:33:36;;;;;;;0.40;0.30;;;;;;;11.42;100.00;100381.78;5046233;28;20921;-56
2022/09/19 03:36:07;;;;;;;0.40;0.30;;;;;;;11.39;100.00;100384.56;5045464;28;20933;-56
2022/09/19 03:38:35;;;;;;;10.63;0.60;;;;;;;11.35;100.00;100380.22;5038997;28;20501;-56
2022/09/19 03:41:02;;;;;;;1.33;0.83;;;;;;;11.42;100.00;100376.47;5042802;28;20475;-56
2022/09/19 03:43:29;;;;;;;2.23;0.40;;;;;;;11.40;100.00;100388.09;5045051;28;20492;-56
2022/09/19 03:45:56;;;;;;;14.83;0.97;;;;;;;11.48;100.00;100383.38;5042151;28;20458;-56
2022/09/19 03:48:23;;;;;;;7.23;0.67;;;;;;;11.40;100.00;100391.63;5035905;28;20484;-56
2022/09/19 03:50:50;;;;;;;0.60;0.40;;;;;;;11.60;100.00;100390.13;5042546;28;20486;-56
2022/09/19 03:53:17;;;;;;;5.83;0.63;;;;;;;11.51;100.00;100384.19;5028772;28;20450;-56
2022/09/19 03:55:44;;;;;;;0.83;0.83;;;;;;;11.68;100.00;100396.97;5041794;28;20528;-56
2022/09/19 03:58:10;;;;;;;12.63;0.80;;;;;;;11.59;100.00;100397.25;5039204;28;20485;-56
2022/09/19 04:00:37;;;;;;;3.10;0.57;;;;;;;11.47;100.00;100400.28;5041822;28;20897;-56
2022/09/19 04:03:04;;;;;;;4.13;1.20;;;;;;;11.45;100.00;100399.47;5045144;28;21020;-56
2022/09/19 04:05:32;;;;;;;2.10;0.50;;;;;;;11.46;100.00;100399.41;5040867;28;21013;-57
2022/09/19 04:07:58;;;;;;;0.30;0.20;;;;;;;11.48;100.00;100402.88;5042951;28;20460;-56
2022/09/19 04:10:26;;;;;;;0.40;0.30;;;;;;;11.47;100.00;100402.94;5041906;28;20474;-56
2022/09/19 04:12:53;;;;;;;0.37;0.27;;;;;;;11.44;100.00;100403.91;5038616;28;20509;-56
2022/09/19 04:15:19;;;;;;;0.40;0.40;;;;;;;11.43;100.00;100404.84;5036791;28;20961;-56
2022/09/19 04:17:46;;;;;;;2.80;0.40;;;;;;;11.64;100.00;100397.97;5050274;28;21009;-56
2022/09/19 04:20:12;;;;;;;1.00;1.00;;;;;;;11.69;100.00;100405.81;5027172;28;20545;-56
2022/09/19 04:22:39;;;;;;;1.00;0.50;;;;;;;11.55;100.00;100408.91;5035503;28;20486;-56
2022/09/19 04:25:10;;;;;;;1.60;1.10;;;;;;;11.78;100.00;100405.50;5045937;28;20516;-56
2022/09/19 04:27:38;;;;;;;4.20;1.30;;;;;;;11.51;100.00;100412.56;5033238;28;21030;-56
2022/09/19 04:30:05;;;;;;;0.87;0.80;;;;;;;11.51;100.00;100413.47;5044560;28;20525;-56
2022/09/19 04:32:32;;;;;;;1.50;0.50;;;;;;;11.71;100.00;100412.84;5029556;28;20447;-56
2022/09/19 04:34:59;;;;;;;2.47;0.40;;;;;;;11.42;100.00;100423.50;5020495;28;20509;-56
2022/09/19 04:37:26;;;;;;;0.40;0.30;;;;;;;11.58;100.00;100428.31;5044096;28;20480;-56
2022/09/19 04:39:53;;;;;;;7.47;0.40;;;;;;;11.61;100.00;100426.47;5044579;28;20451;-56
2022/09/19 04:42:19;;;;;;;1.33;0.57;;;;;;;11.68;100.00;100434.25;5038463;28;20494;-56
2022/09/19 04:44:46;;;;;;;0.57;0.43;;;;;;;11.57;100.00;100431.03;5037801;28;20884;-56
2022/09/19 04:47:14;;;;;;;4.43;0.50;;;;;;;11.77;100.00;100433.94;5043630;28;20451;-56
2022/09/19 04:49:40;;;;;;;4.77;1.47;;;;;;;11.81;100.00;100434.78;5044473;28;20454;-56
2022/09/19 04:52:12;;;;;;;0.47;0.40;;;;;;;11.60;100.00;100432.72;5038825;28;20458;-56
2022/09/19 04:54:41;;;;;;;0.50;0.40;;;;;;;11.80;100.00;100436.56;5037438;28;20475;-56
2022/09/19 04:57:08;;;;;;;0.60;0.60;;;;;;;11.68;100.00;100436.03;5041827;28;20514;-56
2022/09/19 04:59:35;;;;;;;2.60;0.63;;;;;;;11.62;100.00;100441.53;5044369;28;20501;-56
2022/09/19 05:02:02;;;;;;;2.33;2.13;;;;;;;11.53;100.00;100454.22;5040668;28;20899;-56
2022/09/19 05:04:29;;;;;;;3.33;0.97;;;;;;;12.08;100.00;100446.34;5034537;28;20461;-56
2022/09/19 05:06:55;;;;;;;0.80;0.40;;;;;;;11.72;100.00;100449.19;5040788;28;21029;-56
2022/09/19 05:09:22;;;;;;;2.90;1.70;;;;;;;11.70;100.00;100450.16;5037055;28;20851;-56
2022/09/19 05:11:49;;;;;;;3.60;0.70;;;;;;;11.59;100.00;100463.81;5030481;28;20484;-56
2022/09/19 05:14:16;;;;;;;0.87;0.70;;;;;;;11.72;100.00;100459.84;5040758;28;20451;-56
2022/09/19 05:16:43;;;;;;;6.80;0.90;;;;;;;11.55;100.00;100457.69;5031152;28;20870;-56
2022/09/19 05:19:09;;;;;;;2.10;1.20;;;;;;;11.49;100.00;100465.84;5043533;28;20456;-56
2022/09/19 05:21:36;;;;;;;0.50;0.50;;;;;;;11.51;100.00;100473.78;5038684;28;20482;-56
2022/09/19 05:24:03;;;;;;;2.60;0.70;;;;;;;11.68;100.00;100463.53;5043552;28;20584;-56
2022/09/19 05:26:29;;;;;;;7.10;1.03;;;;;;;11.81;100.00;100464.06;5041107;28;20528;-56
2022/09/19 05:28:56;;;;;;;0.80;0.80;;;;;;;11.67;100.00;100466.25;5037016;28;20516;-56
2022/09/19 05:31:24;;;;;;;0.70;0.70;;;;;;;11.60;100.00;100478.84;5039895;28;20482;-56
2022/09/19 05:33:50;;;;;;;3.10;0.60;;;;;;;11.52;100.00;100479.09;5043945;28;21347;-56
2022/09/19 05:36:19;;;;;;;9.93;0.67;;;;;;;11.62;100.00;100492.13;5042168;28;20459;-56
2022/09/19 05:38:46;;;;;;;5.43;1.63;;;;;;;11.68;100.00;100499.94;5037910;28;20459;-56
2022/09/19 05:41:12;;;;;;;0.87;0.87;;;;;;;11.60;100.00;100496.63;5021235;28;20471;-56
2022/09/19 05:43:39;;;;;;;1.90;0.53;;;;;;;11.63;100.00;100486.75;5042537;28;20495;-56
2022/09/19 05:46:05;;;;;;;0.87;0.80;;;;;;;11.82;100.00;100493.31;5041237;28;20512;-56
2022/09/19 05:48:31;;;;;;;1.43;0.67;;;;;;;11.76;100.00;100504.09;5018729;28;20465;-56
2022/09/19 05:50:58;;;;;;;1.60;0.83;;;;;;;11.79;100.00;100503.19;5041516;28;21100;-56
2022/09/19 05:56:23;;;;;;;1.93;0.50;;;;;;;11.83;100.00;100502.19;5002926;28;20514;-56
2022/09/19 05:58:54;;;;;;;0.30;0.20;;;;;;;11.82;100.00;100513.75;5038964;28;20454;-56
2022/09/19 06:01:21;;;;;;;1.13;1.03;;;;;;;11.84;100.00;100503.91;5036115;28;20966;-56
2022/09/19 06:03:48;;;;;;;4.50;0.47;;;;;;;11.91;100.00;100513.44;5030345;28;20503;-56
2022/09/19 06:06:18;;;;;;;3.00;0.87;;;;;;;11.90;100.00;100519.69;5040029;28;20463;-56
2022/09/19 06:08:47;;;;;;;4.20;1.00;;;;;;;11.89;100.00;100522.41;5039888;28;20458;-56
2022/09/19 06:11:14;;;;;;;5.23;1.20;;;;;;;12.02;100.00;100521.13;5035642;28;20616;-56
2022/09/19 06:16:26;;;;;;;24.00;0.57;;;;;;;12.11;100.00;100523.50;5032294;28;20493;-56
2022/09/19 06:18:52;;;;;;;9.90;0.90;;;;;;;12.24;100.00;100527.53;5048247;28;20865;-56
2022/09/19 06:21:18;;;;;;;3.40;0.60;;;;;;;12.17;100.00;100525.97;5035641;28;20478;-56
2022/09/19 06:23:45;;;;;;;0.53;0.30;;;;;;;12.17;100.00;100533.97;5042310;28;20498;-56
2022/09/19 06:26:11;;;;;;;0.70;0.57;;;;;;;12.41;100.00;100540.31;5037074;28;20895;-56
2022/09/19 06:28:38;;;;;;;2.30;0.70;;;;;;;12.46;100.00;100533.91;5035997;28;20509;-56
2022/09/19 06:31:07;;;;;;;9.87;0.40;;;;;;;12.44;100.00;100538.41;5041256;28;20505;-56
2022/09/19 06:33:34;;;;;;;0.40;0.30;;;;;;;12.41;100.00;100546.53;5042362;28;20904;-56
2022/09/19 06:36:02;;;;;;;1.83;0.50;;;;;;;12.46;100.00;100539.25;5037469;28;20857;-56
2022/09/19 06:38:31;;;;;;;4.90;0.60;;;;;;;12.54;100.00;100540.81;5035602;28;20448;-56
2022/09/19 06:40:57;;;;;;;2.87;0.50;;;;;;;12.58;100.00;100537.97;5039973;28;20495;-56
2022/09/19 06:43:26;;;;;;;4.10;1.77;;;;;;;12.52;100.00;100542.66;5042508;28;20563;-56
2022/09/19 06:45:53;;;;;;;0.90;0.70;;;;;;;12.54;100.00;100539.00;5038328;28;20500;-56
2022/09/19 06:48:20;;;;;;;0.50;0.50;;;;;;;12.56;100.00;100536.28;5035545;28;20454;-56
2022/09/19 06:50:47;;;;;;;2.80;0.40;;;;;;;12.61;100.00;100542.31;5048751;28;20531;-56
2022/09/19 06:53:14;;;;;;;1.30;0.50;;;;;;;12.77;100.00;100543.59;5035978;28;20820;-56
2022/09/19 06:55:41;;;;;;;8.10;0.77;;;;;;;12.75;100.00;100545.44;5038791;28;20816;-56
2022/09/19 06:58:15;;;;;;;0.77;0.50;;;;;;;12.96;100.00;100557.16;5025338;28;20448;-56
2022/09/19 07:00:43;;;;;;;4.27;1.13;;;;;;;12.95;99.23;100550.09;5039590;28;20479;-56
2022/09/19 07:03:12;;;;;;;1.03;0.70;;;;;;;13.10;100.00;100554.91;5035208;28;20940;-56
2022/09/19 07:05:42;;;;;;;0.93;0.70;;;;;;;12.99;99.92;100562.41;5048481;28;20458;-56
2022/09/19 07:08:10;;;;;;;0.40;0.30;;;;;;;12.87;100.00;100571.69;5035301;28;20447;-57
2022/09/19 07:10:37;;;;;;;1.00;0.50;;;;;;;12.81;100.00;100571.03;5023583;28;20476;-56
2022/09/19 07:13:05;;;;;;;0.40;0.30;;;;;;;12.70;100.00;100571.38;5041581;28;20456;-56
2022/09/19 07:15:34;;;;;;;8.20;0.80;;;;;;;12.70;100.00;100574.91;5034821;28;20466;-56
2022/09/19 07:18:01;;;;;;;1.47;0.77;;;;;;;12.72;100.00;100570.41;5048595;28;20454;-56
2022/09/19 07:20:28;;;;;;;2.30;0.67;;;;;;;12.91;100.00;100570.69;5035130;28;20845;-56
2022/09/19 07:23:03;;;;;;;0.40;0.30;;;;;;;13.27;99.62;100571.22;5042017;28;20490;-56
2022/09/19 07:25:37;;;;;;;0.40;0.30;;;;;;;13.33;100.00;100579.03;5035138;28;20877;-56
2022/09/19 07:28:05;;;;;;;0.50;0.30;;;;;;;13.39;100.00;100572.59;5020786;28;20522;-56
2022/09/19 07:30:34;;;;;;;4.63;0.50;;;;;;;13.27;100.00;100573.91;5041982;28;20817;-56
2022/09/19 07:33:02;;;;;;;1.50;0.90;;;;;;;13.44;99.96;100575.13;5039232;28;20986;-56
2022/09/19 07:35:32;;;;;;;0.40;0.30;;;;;;;13.83;98.56;100578.97;5034998;28;20455;-56
2022/09/19 07:38:02;;;;;;;0.60;0.50;;;;;;;13.79;98.02;100585.38;5036743;28;20523;-56
2022/09/19 07:40:29;;;;;;;1.03;0.33;;;;;;;14.03;97.26;100588.94;5041546;28;20885;-56
2022/09/19 07:43:01;;;;;;;0.43;0.30;;;;;;;13.86;96.09;100592.25;5040133;28;20494;-56
2022/09/19 07:45:29;;;;;;;0.90;0.50;;;;;;;13.63;97.76;100597.56;5035217;28;20492;-56
2022/09/19 07:48:01;;;;;;;0.80;0.80;;;;;;;13.74;97.61;100598.03;5034916;28;20460;-56
2022/09/19 07:50:28;;;;;;;0.40;0.30;;;;;;;13.60;99.54;100598.53;5040637;28;21066;-56
2022/09/19 07:52:58;;;;;;;4.43;0.80;;;;;;;13.83;100.00;100594.13;5041570;28;21001;-56
2022/09/19 07:55:25;;;;;;;1.60;0.50;;;;;;;13.87;100.00;100606.47;5036631;28;20455;-56
2022/09/19 07:57:53;;;;;;;5.73;0.70;;;;;;;14.15;100.00;100603.63;5035109;28;20456;-56
2022/09/19 08:00:20;;;;;;;0.50;0.30;;;;;;;14.20;98.21;100604.31;5039316;28;20471;-56
2022/09/19 08:02:57;;;;;;;2.60;0.90;;;;;;;14.29;97.12;100612.00;5023908;28;20490;-56
2022/09/19 08:05:24;;;;;;;18.90;1.13;;;;;;;14.55;96.33;100611.03;5028690;28;20876;-56
2022/09/19 08:07:51;;;;;;;8.83;0.60;;;;;;;14.49;95.40;100614.78;5035450;28;20612;-56
2022/09/19 08:10:18;;;;;;;0.60;0.50;;;;;;;14.14;94.69;100607.25;5041044;28;20478;-56
2022/09/19 08:12:45;;;;;;;1.37;1.30;;;;;;;14.13;94.67;100616.19;5045267;28;20487;-56
2022/09/19 08:15:15;;;;;;;3.90;0.80;;;;;;;14.18;94.72;100612.41;5038389;28;20510;-56
2022/09/19 08:17:59;;;;;;;3.50;0.70;;;;;;;14.69;94.29;100608.66;5036751;28;20528;-56
2022/09/19 08:20:27;;;;;;;14.33;1.27;;;;;;;14.81;94.48;100618.00;5038439;28;20475;-56
2022/09/19 08:22:56;;;;;;;6.40;0.90;;;;;;;14.74;93.97;100622.72;5044896;28;20516;-56
2022/09/19 08:25:27;;;;;;;12.57;1.10;;;;;;;14.74;93.49;100627.19;5038218;28;20452;-56
2022/09/19 08:27:55;;;;;;;2.10;0.90;;;;;;;14.96;93.60;100627.22;5043230;28;20513;-56
2022/09/19 08:30:23;;;;;;;2.50;0.60;;;;;;;14.90;92.35;100633.66;5044502;28;20480;-56
2022/09/19 08:32:51;;;;;;;3.67;1.33;;;;;;;14.81;92.55;100631.38;5040403;28;20512;-56
2022/09/19 08:35:19;;;;;;;1.90;1.67;;;;;;;14.91;92.49;100637.22;5037607;28;20455;-56
2022/09/19 08:37:47;;;;;;;2.80;0.70;;;;;;;14.85;92.51;100643.69;5042211;28;20451;-56
2022/09/19 08:40:21;;;;;;;9.83;0.77;;;;;;;15.01;92.78;100639.47;5044812;28;20989;-56
2022/09/19 08:42:50;;;;;;;1.20;0.60;;;;;;;15.31;92.46;100642.66;5041821;28;20446;-56
2022/09/19 08:45:44;;;;;;;5.37;0.43;;;;;;;15.45;91.06;100638.50;5037860;28;20509;-56
2022/09/19 08:48:24;;;;;;;12.60;1.40;;;;;;;15.09;91.06;100653.41;5040044;28;21031;-56
2022/09/19 08:50:59;;;;;;;4.93;0.60;;;;;;;15.19;91.37;100648.53;5041939;28;20486;-57
2022/09/19 08:53:32;;;;;;;0.40;0.30;;;;;;;15.50;90.18;100650.78;5037416;28;20496;-56
2022/09/19 08:56:00;;;;;;;2.73;2.50;;;;;;;15.69;88.98;100651.75;5038257;28;20997;-56
2022/09/19 08:58:30;;;;;;;3.93;0.90;;;;;;;15.77;90.42;100658.59;5044351;28;20455;-56
2022/09/19 09:00:57;;;;;;;1.37;0.87;;;;;;;15.78;88.58;100655.00;5044229;28;20478;-56
2022/09/19 09:03:41;;;;;;;0.60;0.30;;;;;;;15.63;89.39;100653.84;5037803;28;20517;-56
2022/09/19 09:06:35;;;;;;;0.50;0.30;;;;;;;15.90;89.03;100657.13;5047972;28;20467;-56
2022/09/19 09:09:28;;;;;;;0.50;0.43;;;;;;;16.10;89.58;100658.91;5043985;28;20936;-57
2022/09/19 09:12:03;;;;;;;5.03;0.57;;;;;;;16.03;88.74;100658.28;5041388;28;20844;-56
2022/09/19 09:14:46;;;;;;;1.33;1.23;;;;;;;16.22;88.49;100663.69;5018548;28;20459;-56
2022/09/19 09:17:36;;;;;;;4.20;0.90;;;;;;;16.16;90.17;100656.78;5044375;28;20534;-56
2022/09/19 09:20:24;;;;;;;5.10;0.90;;;;;;;16.19;88.16;100664.72;5051006;28;20473;-57
2022/09/19 09:23:04;;;;;;;1.83;0.60;;;;;;;16.59;86.14;100653.00;5043443;28;20505;-56
2022/09/19 09:25:35;;;;;;;1.33;0.40;;;;;;;16.59;86.71;100662.88;5034527;28;20451;-57
2022/09/19 09:28:21;;;;;;;0.83;0.50;;;;;;;16.42;86.71;100662.78;5040407;28;20505;-57
2022/09/19 09:30:51;;;;;;;0.40;0.30;;;;;;;16.50;86.34;100657.94;5019318;28;20470;-57
2022/09/19 09:33:27;;;;;;;14.10;0.63;;;;;;;16.49;86.12;100661.56;5036943;28;20869;-57
2022/09/19 09:36:23;;;;;;;9.63;0.67;;;;;;;16.34;85.60;100651.53;5032545;28;20901;-57
2022/09/19 09:38:57;;;;;;;3.93;0.80;;;;;;;16.61;86.72;100652.06;5035139;28;20466;-57
2022/09/19 09:41:47;;;;;;;4.20;0.83;;;;;;;16.62;86.21;100651.13;5037221;28;20463;-57
2022/09/19 09:44:33;;;;;;;1.97;0.60;;;;;;;16.55;85.62;100655.88;5029687;28;20502;-57
2022/09/19 09:47:21;;;;;;;0.60;0.50;;;;;;;16.66;85.90;100647.31;5036486;28;20446;-57
2022/09/19 09:49:52;;;;;;;1.70;1.60;;;;;;;16.64;85.00;100633.97;5034183;28;20506;-57
2022/09/19 09:52:25;;;;;;;0.87;0.60;;;;;;;16.88;85.18;100638.19;5039093;28;20425;-57
2022/09/19 09:58:17;;;;;;;0.50;0.30;;;;;;;16.93;82.14;100637.09;5020647;28;20463;-57
2022/09/19 10:03:52;;;;;;;1.93;0.93;;;;;;;17.10;83.11;100637.13;5026187;28;20498;-57
2022/09/19 10:06:27;;;;;;;0.97;0.50;;;;;;;17.02;83.25;100626.78;5035767;28;20447;-57
2022/09/19 10:09:01;;;;;;;11.30;1.10;;;;;;;17.06;83.98;100635.53;5037463;28;20790;-57
2022/09/19 10:11:44;;;;;;;0.90;0.57;;;;;;;17.00;83.87;100630.50;5024389;28;20514;-57
2022/09/19 10:14:33;;;;;;;0.67;0.57;;;;;;;17.15;83.16;100638.66;5035698;28;21386;-57
2022/09/19 10:17:02;;;;;;;5.13;0.87;;;;;;;16.73;84.47;100630.91;5041851;28;20451;-57
2022/09/19 10:19:52;;;;;;;8.53;0.83;;;;;;;17.07;83.16;100637.28;5043218;28;20521;-57
2022/09/19 10:22:18;;;;;;;1.10;0.63;;;;;;;17.28;81.86;100619.22;5038434;28;20451;-57
2022/09/19 10:24:53;;;;;;;2.87;0.80;;;;;;;17.33;80.86;100619.84;5039951;28;20602;-57
2022/09/19 10:27:23;;;;;;;6.20;1.00;;;;;;;17.38;80.75;100625.84;5042431;28;20890;-57
2022/09/19 10:29:59;;;;;;;2.07;1.10;;;;;;;17.48;78.41;100627.13;5039687;28;20444;-57
2022/09/19 10:32:34;;;;;;;0.77;0.43;;;;;;;17.35;79.28;100612.56;5016973;28;20928;-57
2022/09/19 10:35:25;;;;;;;1.70;0.87;;;;;;;17.97;77.35;100616.50;5036357;28;20447;-57
2022/09/19 10:38:09;;;;;;;0.70;0.70;;;;;;;17.49;77.63;100618.09;5038973;28;20479;-57
2022/09/19 10:40:35;;;;;;;12.57;0.90;;;;;;;17.80;78.62;100625.47;5042216;28;20521;-57
2022/09/19 10:43:02;;;;;;;2.33;0.63;;;;;;;17.67;78.67;100622.50;5024317;28;20450;-57
2022/09/19 10:45:37;;;;;;;0.73;0.40;;;;;;;17.69;76.53;100623.38;5035576;28;20547;-57
2022/09/19 10:48:18;;;;;;;1.10;0.70;;;;;;;17.65;76.91;100616.34;5035399;28;20455;-57
2022/09/19 10:50:50;;;;;;;0.60;0.30;;;;;;;17.39;78.02;100625.75;5038732;28;20991;-57
2022/09/19 10:53:26;;;;;;;6.33;0.80;;;;;;;17.11;81.91;100633.50;5042550;28;20509;-57
2022/09/19 10:55:55;;;;;;;0.50;0.30;;;;;;;16.72;83.97;100644.38;5040883;28;20922;-57
2022/09/19 10:58:28;;;;;;;1.37;0.63;;;;;;;16.78;87.75;100657.50;5035244;28;20461;-57
2022/09/19 11:01:04;;;;;;;0.43;0.30;;;;;;;16.38;92.06;100656.69;5021623;28;20503;-57
2022/09/19 11:03:32;;;;;;;0.80;0.70;;;;;;;16.25;94.24;100656.38;5037607;28;20453;-57
2022/09/19 11:06:06;;;;;;;4.30;0.73;;;;;;;16.18;93.94;100654.94;5035280;28;20513;-57
2022/09/19 11:08:45;;;;;;;2.47;0.63;;;;;;;16.10;96.31;100659.75;5029541;28;21261;-57
2022/09/19 11:11:37;;;;;;;0.83;0.70;;;;;;;16.20;95.59;100658.41;5039670;28;20562;-57
2022/09/19 11:14:18;;;;;;;0.60;0.40;;;;;;;16.47;90.95;100666.13;5033036;28;20462;-57
2022/09/19 11:17:15;;;;;;;0.50;0.40;;;;;;;16.25;92.60;100656.38;5038984;28;20442;-57
2022/09/19 11:19:49;;;;;;;0.50;0.40;;;;;;;16.21;93.62;100661.97;4999181;28;20953;-57
2022/09/19 11:22:31;;;;;;;0.50;0.30;;;;;;;16.16;93.53;100658.59;5037448;28;20451;-57
2022/09/19 11:25:18;;;;;;;16.57;0.60;;;;;;;16.23;93.31;100665.44;5037372;28;20988;-57
2022/09/19 11:27:50;;;;;;;1.40;0.90;;;;;;;16.06;92.18;100652.81;5023960;28;20960;-57
2022/09/19 11:30:25;;;;;;;1.17;0.70;;;;;;;16.60;92.52;100656.56;5035104;28;20475;-57
2022/09/19 11:33:22;;;;;;;1.13;0.80;;;;;;;16.59;91.80;100658.38;5039528;28;20454;-57
2022/09/19 11:36:27;;;;;;;0.60;0.47;;;;;;;16.65;92.26;100649.13;5034621;28;20815;-57
2022/09/19 11:39:15;;;;;;;0.50;0.50;;;;;;;16.64;89.27;100646.53;5030051;28;20448;-57
2022/09/19 11:42:30;;;;;;;0.87;0.87;;;;;;;16.49;90.02;100649.00;5043551;28;20519;-57
2022/09/19 11:45:11;;;;;;;7.03;0.70;;;;;;;16.42;87.92;100647.53;5046159;28;20498;-57
2022/09/19 11:48:06;;;;;;;5.80;0.70;;;;;;;16.66;88.16;100645.50;5043531;28;20533;-57
2022/09/19 11:50:44;;;;;;;14.37;1.67;;;;;;;16.65;88.62;100649.13;5027822;28;20498;-57
2022/09/19 11:53:21;;;;;;;1.03;0.93;;;;;;;16.53;87.70;100655.09;5038850;28;20478;-57
2022/09/19 11:56:17;;;;;;;0.83;0.33;;;;;;;16.88;85.86;100650.75;5041067;28;20443;-57
2022/09/19 11:58:56;;;;;;;2.93;0.60;;;;;;;17.55;86.41;100650.06;5029310;28;20528;-57
2022/09/19 12:01:38;;;;;;;0.50;0.30;;;;;;;17.52;84.49;100650.19;5038666;28;20477;-57
2022/09/19 12:04:32;;;;;;;0.60;0.40;;;;;;;17.31;86.70;100641.44;5038705;28;20578;-57
2022/09/19 12:07:16;;;;;;;0.80;0.67;;;;;;;17.40;88.68;100640.06;5041537;28;20447;-57